createdAt,value
2022-10-31T00:01:20.130Z,101238.91
2022-10-31T00:03:48.029Z,101237.63
2022-10-31T00:06:15.218Z,101241.27
2022-10-31T00:08:41.575Z,101239.60
2022-10-31T00:11:11.127Z,101235.45
2022-10-31T00:13:37.557Z,101240.56
2022-10-31T00:16:05.055Z,101242.48
2022-10-31T00:18:33.597Z,101242.26
2022-10-31T00:21:02.270Z,101242.64
2022-10-31T00:23:28.992Z,101243.20
2022-10-31T00:26:01.040Z,101246.11
2022-10-31T00:28:27.642Z,101244.27
2022-10-31T00:30:54.038Z,101242.58
2022-10-31T00:33:20.416Z,101246.30
2022-10-31T00:35:51.090Z,101246.09
2022-10-31T00:38:17.421Z,101243.07
2022-10-31T00:40:43.936Z,101245.05
2022-10-31T00:45:42.895Z,101248.67
2022-10-31T00:48:09.934Z,101246.34
2022-10-31T00:50:36.521Z,101248.37
2022-10-31T00:53:02.911Z,101248.96
2022-10-31T00:55:29.739Z,101250.05
2022-10-31T00:57:56.256Z,101254.21
2022-10-31T01:00:22.851Z,101255.92
2022-10-31T01:02:54.183Z,101260.75
2022-10-31T01:05:22.882Z,101259.08
2022-10-31T01:07:49.538Z,101257.01
2022-10-31T01:10:16.449Z,101254.48
2022-10-31T01:12:48.780Z,101258.87
2022-10-31T01:15:19.487Z,101258.90
2022-10-31T01:17:46.424Z,101261.85
2022-10-31T01:20:14.555Z,101262.00
2022-10-31T01:22:41.088Z,101255.43
2022-10-31T01:25:08.695Z,101255.82
2022-10-31T01:27:37.621Z,101255.41
2022-10-31T01:30:09.216Z,101255.33
2022-10-31T01:32:35.684Z,101260.71
2022-10-31T01:35:02.339Z,101262.63
2022-10-31T01:37:28.926Z,101263.91
2022-10-31T01:39:55.788Z,101268.84
2022-10-31T01:42:23.153Z,101267.36
2022-10-31T01:44:57.220Z,101267.05
2022-10-31T01:47:40.944Z,101264.83
2022-10-31T01:50:15.522Z,101263.55
2022-10-31T01:52:46.431Z,101263.75
2022-10-31T01:55:18.224Z,101262.10
2022-10-31T01:57:48.633Z,101261.00
2022-10-31T02:00:19.181Z,101262.90
2022-10-31T02:02:46.672Z,101261.95
2022-10-31T02:05:18.003Z,101260.52
2022-10-31T02:07:58.704Z,101260.06
2022-10-31T02:10:32.126Z,101260.17
2022-10-31T02:13:03.018Z,101266.91
2022-10-31T02:15:32.172Z,101270.05
2022-10-31T02:17:59.820Z,101269.63
2022-10-31T02:20:33.550Z,101266.35
2022-10-31T02:23:45.207Z,101262.54
2022-10-31T02:27:01.904Z,101265.71
2022-10-31T02:30:05.609Z,101265.61
2022-10-31T02:33:06.539Z,101268.43
2022-10-31T02:36:18.466Z,101269.38
2022-10-31T02:38:50.605Z,101277.04
2022-10-31T02:41:48.564Z,101275.38
2022-10-31T02:44:28.550Z,101277.34
2022-10-31T02:47:01.722Z,101276.27
2022-10-31T02:49:44.019Z,101273.45
2022-10-31T02:52:17.203Z,101271.95
2022-10-31T02:54:46.015Z,101277.73
2022-10-31T02:57:13.299Z,101275.70
2022-10-31T02:59:46.511Z,101273.70
2022-10-31T03:02:42.177Z,101277.83
2022-10-31T03:05:47.530Z,101278.10
2022-10-31T03:08:41.683Z,101279.00
2022-10-31T03:11:09.618Z,101280.36
2022-10-31T03:13:59.150Z,101280.16
2022-10-31T03:16:49.002Z,101283.64
2022-10-31T03:19:38.290Z,101280.13
2022-10-31T03:22:13.410Z,101284.23
2022-10-31T03:24:42.009Z,101284.79
2022-10-31T03:27:12.974Z,101285.72
2022-10-31T03:29:42.694Z,101287.52
2022-10-31T03:32:25.064Z,101285.61
2022-10-31T03:34:56.788Z,101285.89
2022-10-31T03:37:27.507Z,101286.42
2022-10-31T03:39:57.508Z,101286.55
2022-10-31T03:42:31.898Z,101286.02
2022-10-31T03:45:11.383Z,101284.69
2022-10-31T03:47:43.904Z,101283.23
2022-10-31T03:50:14.176Z,101282.07
2022-10-31T03:52:58.763Z,101285.31
2022-10-31T03:55:31.566Z,101285.91
2022-10-31T03:58:03.849Z,101287.49
2022-10-31T04:00:34.280Z,101288.46
2022-10-31T04:03:05.967Z,101287.25
2022-10-31T04:05:33.873Z,101290.21
2022-10-31T04:08:05.013Z,101290.54
2022-10-31T04:10:33.749Z,101289.66
2022-10-31T04:13:07.192Z,101291.49
2022-10-31T04:15:43.350Z,101288.04
2022-10-31T04:18:09.932Z,101285.52
2022-10-31T04:20:40.030Z,101286.66
2022-10-31T04:23:18.673Z,101288.60
2022-10-31T04:25:45.116Z,101287.18
2022-10-31T04:28:11.963Z,101290.23
2022-10-31T04:30:38.371Z,101291.58
2022-10-31T04:33:04.775Z,101294.92
2022-10-31T04:35:31.421Z,101295.72
2022-10-31T04:37:57.945Z,101295.02
2022-10-31T04:40:24.629Z,101295.43
2022-10-31T04:43:30.207Z,101292.89
2022-10-31T04:45:56.488Z,101293.59
2022-10-31T04:48:25.442Z,101294.96
2022-10-31T04:50:51.828Z,101296.33
2022-10-31T04:53:18.220Z,101295.03
2022-10-31T04:56:05.164Z,101293.89
2022-10-31T04:58:44.462Z,101294.73
2022-10-31T05:01:11.184Z,101293.27
2022-10-31T05:03:39.589Z,101293.08
2022-10-31T05:06:06.833Z,101295.84
2022-10-31T05:08:33.201Z,101299.41
2022-10-31T05:11:04.750Z,101294.95
2022-10-31T05:13:32.456Z,101293.52
2022-10-31T05:16:19.001Z,101295.30
2022-10-31T05:19:03.862Z,101304.77
2022-10-31T05:21:53.539Z,101310.06
2022-10-31T05:24:22.018Z,101309.59
2022-10-31T05:26:49.627Z,101310.46
2022-10-31T05:29:16.218Z,101311.80
2022-10-31T05:31:42.931Z,101318.34
2022-10-31T05:34:16.009Z,101320.38
2022-10-31T05:36:46.035Z,101318.48
2022-10-31T05:39:15.856Z,101324.28
2022-10-31T05:41:45.976Z,101325.33
2022-10-31T05:44:19.455Z,101325.77
2022-10-31T05:47:08.049Z,101325.59
2022-10-31T05:49:53.491Z,101325.75
2022-10-31T05:52:39.002Z,101326.09
2022-10-31T05:55:14.683Z,101334.39
2022-10-31T05:57:54.252Z,101332.23
2022-10-31T06:00:21.729Z,101331.21
2022-10-31T06:02:48.439Z,101330.04
2022-10-31T06:05:22.742Z,101326.23
2022-10-31T06:07:49.324Z,101333.45
2022-10-31T06:10:19.809Z,101333.40
2022-10-31T06:12:49.550Z,101330.88
2022-10-31T06:15:34.427Z,101334.41
2022-10-31T06:18:04.077Z,101336.59
2022-10-31T06:20:34.702Z,101340.40
2022-10-31T06:23:05.360Z,101343.84
2022-10-31T06:25:33.810Z,101341.91
2022-10-31T06:28:00.469Z,101348.25
2022-10-31T06:30:34.515Z,101353.27
2022-10-31T06:33:04.821Z,101355.73
2022-10-31T06:35:32.588Z,101357.28
2022-10-31T06:37:59.820Z,101363.77
2022-10-31T06:40:40.771Z,101365.63
2022-10-31T06:43:36.495Z,101372.58
2022-10-31T06:46:23.181Z,101378.27
2022-10-31T06:49:07.174Z,101373.48
2022-10-31T06:51:48.001Z,101377.42
2022-10-31T06:54:17.657Z,101381.36
2022-10-31T06:56:48.148Z,101384.72
2022-10-31T06:59:15.386Z,101390.43
2022-10-31T07:02:05.723Z,101392.05
2022-10-31T07:04:33.235Z,101395.77
2022-10-31T07:06:59.758Z,101391.31
2022-10-31T07:09:27.678Z,101396.89
2022-10-31T07:11:55.360Z,101393.88
2022-10-31T07:14:22.863Z,101398.48
2022-10-31T07:16:51.391Z,101398.29
2022-10-31T07:19:21.896Z,101403.64
2022-10-31T07:21:48.866Z,101403.31
2022-10-31T07:24:15.625Z,101405.16
2022-10-31T07:26:42.786Z,101409.80
2022-10-31T07:29:10.171Z,101413.70
2022-10-31T07:31:41.948Z,101413.80
2022-10-31T07:34:13.411Z,101419.48
2022-10-31T07:36:58.793Z,101425.95
2022-10-31T07:39:25.426Z,101427.20
2022-10-31T07:41:52.787Z,101427.36
2022-10-31T07:44:19.421Z,101425.86
2022-10-31T07:47:06.644Z,101423.65
2022-10-31T07:50:02.197Z,101422.09
2022-10-31T07:53:06.734Z,101420.39
2022-10-31T07:55:51.902Z,101420.02
2022-10-31T07:58:19.519Z,101420.39
2022-10-31T08:00:48.629Z,101421.06
2022-10-31T08:03:18.993Z,101418.19
2022-10-31T08:05:57.648Z,101417.71
2022-10-31T08:08:42.609Z,101414.89
2022-10-31T08:11:09.337Z,101412.65
2022-10-31T08:13:35.746Z,101409.98
2022-10-31T08:16:04.695Z,101411.04
2022-10-31T08:24:04.869Z,101414.05
2022-10-31T08:26:34.390Z,101418.09
2022-10-31T08:29:02.847Z,101415.86
2022-10-31T08:31:34.454Z,101413.81
2022-10-31T08:34:23.077Z,101416.73
2022-10-31T08:36:50.861Z,101425.84
2022-10-31T08:39:35.937Z,101427.95
2022-10-31T08:42:07.081Z,101428.68
2022-10-31T08:44:36.499Z,101432.19
2022-10-31T08:47:05.974Z,101428.03
2022-10-31T08:49:35.223Z,101427.97
2022-10-31T08:52:04.674Z,101430.92
2022-10-31T08:54:37.339Z,101431.69
2022-10-31T08:57:24.955Z,101431.23
2022-10-31T08:59:57.491Z,101432.34
2022-10-31T09:02:44.052Z,101430.89
2022-10-31T09:05:12.749Z,101433.92
2022-10-31T09:07:41.421Z,101428.69
2022-10-31T09:10:10.248Z,101430.31
2022-10-31T09:12:39.433Z,101431.74
2022-10-31T09:15:27.271Z,101434.05
2022-10-31T09:18:05.429Z,101433.44
2022-10-31T09:20:49.174Z,101433.56
2022-10-31T09:23:20.358Z,101431.69
2022-10-31T09:25:51.169Z,101434.26
2022-10-31T09:28:37.875Z,101434.69
2022-10-31T09:31:14.953Z,101433.85
2022-10-31T09:34:09.460Z,101434.70
2022-10-31T09:36:39.954Z,101436.19
2022-10-31T09:39:38.613Z,101436.55
2022-10-31T09:42:54.868Z,101440.40
2022-10-31T09:45:30.621Z,101439.30
2022-10-31T09:48:43.740Z,101438.18
2022-10-31T09:51:32.046Z,101439.58
2022-10-31T09:54:29.932Z,101442.20
2022-10-31T09:57:01.446Z,101438.90
2022-10-31T09:59:36.340Z,101441.01
2022-10-31T10:02:18.348Z,101439.69
2022-10-31T10:05:26.147Z,101442.65
2022-10-31T10:08:09.652Z,101439.96
2022-10-31T10:11:52.137Z,101441.20
2022-10-31T10:14:43.592Z,101443.02
2022-10-31T10:17:17.787Z,101442.61
2022-10-31T10:20:09.478Z,101441.42
2022-10-31T10:22:57.222Z,101443.05
2022-10-31T10:25:35.996Z,101441.28
2022-10-31T10:28:26.777Z,101439.34
2022-10-31T10:31:04.620Z,101438.16
2022-10-31T10:33:38.358Z,101435.68
2022-10-31T10:36:20.338Z,101433.48
2022-10-31T10:38:55.634Z,101436.94
2022-10-31T10:41:29.355Z,101434.60
2022-10-31T10:44:00.717Z,101431.46
2022-10-31T10:47:14.102Z,101434.69
2022-10-31T10:49:50.836Z,101427.62
2022-10-31T10:52:50.862Z,101422.49
2022-10-31T10:55:44.911Z,101426.88
2022-10-31T10:58:13.919Z,101416.38
2022-10-31T11:00:44.379Z,101421.92
2022-10-31T11:03:12.830Z,101415.48
2022-10-31T11:05:55.645Z,101411.14
2022-10-31T11:08:33.928Z,101411.36
2022-10-31T11:11:09.232Z,101410.36
2022-10-31T11:13:38.127Z,101414.36
2022-10-31T11:16:11.109Z,101413.61
2022-10-31T11:18:44.000Z,101413.34
2022-10-31T11:21:30.395Z,101415.42
2022-10-31T11:24:10.612Z,101415.44
2022-10-31T11:26:40.631Z,101413.30
2022-10-31T11:29:16.661Z,101414.25
2022-10-31T11:31:47.672Z,101411.11
2022-10-31T11:34:39.268Z,101406.19
2022-10-31T11:37:18.254Z,101412.89
2022-10-31T11:39:54.500Z,101417.71
2022-10-31T11:42:26.152Z,101413.30
2022-10-31T11:44:56.546Z,101415.58
2022-10-31T11:47:31.227Z,101414.73
2022-10-31T11:50:04.422Z,101412.61
2022-10-31T11:52:33.779Z,101412.08
2022-10-31T11:55:16.836Z,101408.41
2022-10-31T11:57:50.398Z,101405.35
2022-10-31T12:00:24.363Z,101404.98
2022-10-31T12:03:26.342Z,101407.21
2022-10-31T12:06:06.112Z,101401.89
2022-10-31T12:08:50.151Z,101402.96
2022-10-31T12:11:45.400Z,101403.12
2022-10-31T12:14:43.517Z,101399.25
2022-10-31T12:17:38.240Z,101402.73
2022-10-31T12:20:35.318Z,101400.55
2022-10-31T12:23:16.215Z,101398.98
2022-10-31T12:26:08.739Z,101395.92
2022-10-31T12:28:55.220Z,101395.61
2022-10-31T12:31:53.338Z,101393.73
2022-10-31T12:34:44.840Z,101396.09
2022-10-31T12:37:54.821Z,101391.67
2022-10-31T12:40:50.711Z,101390.70
2022-10-31T12:43:37.591Z,101388.35
2022-10-31T12:46:18.018Z,101388.19
2022-10-31T12:48:57.266Z,101386.95
2022-10-31T12:51:48.185Z,101387.25
2022-10-31T12:54:47.975Z,101385.17
2022-10-31T12:57:45.871Z,101384.52
2022-10-31T13:00:17.281Z,101380.92
2022-10-31T13:02:55.641Z,101379.60
2022-10-31T13:05:35.569Z,101374.23
2022-10-31T13:08:19.239Z,101375.30
2022-10-31T13:10:54.353Z,101375.69
2022-10-31T13:13:35.406Z,101374.95
2022-10-31T13:16:13.399Z,101367.46
2022-10-31T13:19:20.461Z,101369.44
2022-10-31T13:22:10.626Z,101368.08
2022-10-31T13:25:05.538Z,101369.77
2022-10-31T13:27:45.312Z,101362.95
2022-10-31T13:30:22.270Z,101358.38
2022-10-31T13:33:04.736Z,101356.46
2022-10-31T13:36:28.544Z,101356.94
2022-10-31T13:39:23.328Z,101356.23
2022-10-31T13:42:10.714Z,101355.86
2022-10-31T13:44:39.448Z,101351.48
2022-10-31T13:47:29.621Z,101350.21
2022-10-31T13:50:21.553Z,101354.91
2022-10-31T13:52:50.997Z,101355.29
2022-10-31T13:55:42.687Z,101351.45
2022-10-31T13:58:29.810Z,101353.35
2022-10-31T14:01:02.312Z,101351.14
2022-10-31T14:06:42.303Z,101350.82
2022-10-31T14:09:25.621Z,101348.91
2022-10-31T14:11:57.638Z,101349.85
2022-10-31T14:14:35.520Z,101350.50
2022-10-31T14:17:04.363Z,101345.13
2022-10-31T14:19:33.382Z,101348.55
2022-10-31T14:22:03.321Z,101342.68
2022-10-31T14:24:35.803Z,101343.45
2022-10-31T14:27:28.450Z,101340.04
2022-10-31T14:30:08.459Z,101345.10
2022-10-31T14:32:39.019Z,101340.15
2022-10-31T14:35:20.344Z,101347.84
2022-10-31T14:38:34.014Z,101344.84
2022-10-31T14:41:33.213Z,101346.66
2022-10-31T14:44:13.432Z,101346.45
2022-10-31T14:46:51.981Z,101349.52
2022-10-31T14:49:35.804Z,101346.05
2022-10-31T14:52:08.863Z,101344.90
2022-10-31T14:54:42.030Z,101343.11
2022-10-31T14:57:23.477Z,101348.20
2022-10-31T15:00:15.622Z,101350.36
2022-10-31T15:03:17.245Z,101350.85
2022-10-31T15:05:52.857Z,101351.52
2022-10-31T15:08:52.219Z,101352.45
2022-10-31T15:11:29.516Z,101353.65
2022-10-31T15:14:01.162Z,101353.84
2022-10-31T15:16:40.939Z,101351.86
2022-10-31T15:19:13.274Z,101355.71
2022-10-31T15:21:48.796Z,101355.45
2022-10-31T15:24:19.758Z,101351.63
2022-10-31T15:27:02.355Z,101356.42
2022-10-31T15:29:33.625Z,101355.61
2022-10-31T15:32:19.325Z,101358.42
2022-10-31T15:34:48.078Z,101358.34
2022-10-31T15:37:20.679Z,101361.00
2022-10-31T15:39:51.190Z,101356.39
2022-10-31T15:42:29.098Z,101358.69
2022-10-31T15:45:17.900Z,101356.98
2022-10-31T15:47:59.247Z,101353.08
2022-10-31T15:50:32.777Z,101355.23
2022-10-31T15:53:02.556Z,101363.89
2022-10-31T15:55:38.433Z,101367.04
2022-10-31T15:58:15.120Z,101366.88
2022-10-31T16:00:52.654Z,101370.70
2022-10-31T16:03:28.744Z,101371.89
2022-10-31T16:06:04.974Z,101374.61
2022-10-31T16:08:43.220Z,101373.80
2022-10-31T16:11:12.270Z,101377.55
2022-10-31T16:13:57.074Z,101378.43
2022-10-31T16:16:35.080Z,101380.48
2022-10-31T16:19:07.205Z,101377.50
2022-10-31T16:21:38.231Z,101378.11
2022-10-31T16:24:29.464Z,101378.39
2022-10-31T16:27:19.957Z,101379.05
2022-10-31T16:29:48.793Z,101378.67
2022-10-31T16:32:28.003Z,101380.01
2022-10-31T16:35:00.627Z,101383.70
2022-10-31T16:37:30.054Z,101382.46
2022-10-31T16:39:59.486Z,101385.66
2022-10-31T16:42:29.166Z,101385.04
2022-10-31T16:44:57.432Z,101386.30
2022-10-31T16:47:28.442Z,101384.50
2022-10-31T16:50:01.404Z,101380.54
2022-10-31T16:52:38.281Z,101386.02
2022-10-31T16:55:18.146Z,101385.62
2022-10-31T16:57:58.223Z,101381.05
2022-10-31T17:00:28.864Z,101379.00
2022-10-31T17:02:59.455Z,101381.02
2022-10-31T17:05:31.078Z,101383.46
2022-10-31T17:08:01.025Z,101385.08
2022-10-31T17:10:30.874Z,101383.68
2022-10-31T17:13:00.499Z,101384.65
2022-10-31T17:15:30.180Z,101385.69
2022-10-31T17:17:58.939Z,101386.86
2022-10-31T17:20:30.859Z,101387.75
2022-10-31T17:23:00.417Z,101382.84
2022-10-31T17:25:36.281Z,101386.38
2022-10-31T17:28:05.970Z,101387.04
2022-10-31T17:30:37.364Z,101386.97
2022-10-31T17:33:07.227Z,101388.77
2022-10-31T17:35:37.061Z,101383.95
2022-10-31T17:38:05.993Z,101382.49
2022-10-31T17:40:35.215Z,101385.39
2022-10-31T17:43:04.773Z,101379.82
2022-10-31T17:45:33.632Z,101374.92
2022-10-31T17:48:04.719Z,101376.27
2022-10-31T17:50:35.269Z,101373.33
2022-10-31T17:53:05.867Z,101377.86
2022-10-31T17:55:36.262Z,101376.94
2022-10-31T17:58:07.013Z,101374.77
2022-10-31T18:00:36.132Z,101376.05
2022-10-31T18:03:05.704Z,101375.86
2022-10-31T18:05:35.536Z,101374.64
2022-10-31T18:08:06.305Z,101372.55
2022-10-31T18:10:35.112Z,101370.14
2022-10-31T18:13:04.214Z,101374.64
2022-10-31T18:15:34.505Z,101367.93
2022-10-31T18:18:04.818Z,101368.80
2022-10-31T18:20:34.179Z,101369.75
2022-10-31T18:23:04.265Z,101368.16
2022-10-31T18:25:33.452Z,101370.77
2022-10-31T18:28:05.813Z,101371.45
2022-10-31T18:30:39.629Z,101370.80
2022-10-31T18:33:09.148Z,101369.09
2022-10-31T18:35:42.703Z,101366.45
2022-10-31T18:38:15.154Z,101362.98
2022-10-31T18:40:45.308Z,101361.13
2022-10-31T18:43:14.100Z,101362.41
2022-10-31T18:45:50.376Z,101360.76
2022-10-31T18:48:22.777Z,101359.89
2022-10-31T18:50:51.621Z,101358.13
2022-10-31T18:53:20.380Z,101358.66
2022-10-31T18:55:50.314Z,101351.48
2022-10-31T18:58:19.930Z,101356.53
2022-10-31T19:00:49.488Z,101355.23
2022-10-31T19:03:24.848Z,101357.27
2022-10-31T19:05:56.845Z,101358.23
2022-10-31T19:10:56.765Z,101350.35
2022-10-31T19:13:25.685Z,101355.79
2022-10-31T19:15:54.722Z,101352.27
2022-10-31T19:18:24.873Z,101346.09
2022-10-31T19:20:54.572Z,101343.16
2022-10-31T19:23:24.504Z,101340.81
2022-10-31T19:25:54.301Z,101335.17
2022-10-31T19:28:23.567Z,101337.64
2022-10-31T19:30:56.130Z,101332.40
2022-10-31T19:33:31.986Z,101334.08
2022-10-31T19:36:09.221Z,101333.39
2022-10-31T19:38:42.963Z,101334.02
2022-10-31T19:41:18.204Z,101334.67
2022-10-31T19:43:50.034Z,101336.27
2022-10-31T19:46:47.754Z,101338.77
2022-10-31T19:49:12.710Z,101341.98
2022-10-31T19:51:41.786Z,101337.89
2022-10-31T19:54:12.225Z,101340.59
2022-10-31T19:56:41.968Z,101339.34
2022-10-31T19:59:10.534Z,101340.52
2022-10-31T20:01:39.641Z,101341.59
2022-10-31T20:04:08.956Z,101336.51
2022-10-31T20:06:42.209Z,101334.89
2022-10-31T20:09:17.961Z,101334.42
2022-10-31T20:11:47.929Z,101332.59
2022-10-31T20:14:18.150Z,101327.49
2022-10-31T20:16:48.407Z,101328.27
2022-10-31T20:19:17.680Z,101325.90
2022-10-31T20:21:47.583Z,101328.95
2022-10-31T20:24:16.510Z,101328.89
2022-10-31T20:26:46.046Z,101325.97
2022-10-31T20:29:16.602Z,101325.42
2022-10-31T20:31:48.184Z,101323.83
2022-10-31T20:34:19.430Z,101321.60
2022-10-31T20:36:50.079Z,101316.05
2022-10-31T20:39:19.643Z,101314.98
2022-10-31T20:41:50.619Z,101316.26
2022-10-31T20:44:20.756Z,101317.30
2022-10-31T20:46:49.816Z,101312.56
2022-10-31T20:49:18.767Z,101311.36
2022-10-31T20:51:48.612Z,101307.80
2022-10-31T20:54:19.791Z,101310.18
2022-10-31T20:56:49.516Z,101313.09
2022-10-31T20:59:19.993Z,101310.23
2022-10-31T21:01:49.132Z,101309.80
2022-10-31T21:04:20.083Z,101309.80
2022-10-31T21:06:49.891Z,101310.45
2022-10-31T21:09:18.484Z,101310.77
2022-10-31T21:11:47.322Z,101316.75
2022-10-31T21:14:18.316Z,101320.09
2022-10-31T21:16:47.709Z,101319.80
2022-10-31T21:19:17.152Z,101317.80
2022-10-31T21:21:47.159Z,101317.27
2022-10-31T21:26:52.231Z,101328.12
2022-10-31T21:29:22.049Z,101327.26
2022-10-31T21:31:50.697Z,101327.95
2022-10-31T21:34:20.548Z,101329.45
2022-10-31T21:36:48.910Z,101327.83
2022-10-31T21:39:18.624Z,101323.96
2022-10-31T21:41:47.623Z,101317.86
2022-10-31T21:44:16.530Z,101315.81
2022-10-31T21:46:47.764Z,101314.63
2022-10-31T21:49:16.302Z,101315.22
2022-10-31T21:51:47.457Z,101312.95
2022-10-31T21:54:29.269Z,101312.69
2022-10-31T21:57:02.083Z,101304.43
2022-10-31T21:59:31.763Z,101302.89
2022-10-31T22:02:01.304Z,101306.45
2022-10-31T22:04:31.457Z,101305.13
2022-10-31T22:07:00.429Z,101303.27
2022-10-31T22:09:30.255Z,101299.36
2022-10-31T22:12:02.038Z,101294.51
2022-10-31T22:14:31.738Z,101290.53
2022-10-31T22:17:00.402Z,101286.28
2022-10-31T22:19:30.218Z,101284.27
2022-10-31T22:21:58.593Z,101282.75
2022-10-31T22:24:27.455Z,101281.73
2022-10-31T22:26:57.399Z,101287.54
2022-10-31T22:29:28.856Z,101286.55
2022-10-31T22:31:59.588Z,101285.46
2022-10-31T22:34:29.696Z,101287.70
2022-10-31T22:36:58.370Z,101285.13
2022-10-31T22:39:26.857Z,101286.40
2022-10-31T22:41:55.060Z,101283.48
2022-10-31T22:44:23.655Z,101284.90
2022-10-31T22:46:51.770Z,101281.05
2022-10-31T22:49:20.879Z,101280.10
2022-10-31T22:51:51.231Z,101279.09
2022-10-31T22:54:19.893Z,101273.80
2022-10-31T22:56:48.182Z,101272.02
2022-10-31T22:59:17.085Z,101268.95
2022-10-31T23:01:46.131Z,101263.35
2022-10-31T23:04:16.618Z,101261.74
2022-10-31T23:06:45.552Z,101263.03
2022-10-31T23:09:16.579Z,101251.52
2022-10-31T23:11:46.330Z,101250.92
2022-10-31T23:14:21.138Z,101243.20
2022-10-31T23:16:55.516Z,101239.67
2022-10-31T23:19:27.824Z,101238.08
2022-10-31T23:22:00.869Z,101235.52
2022-10-31T23:24:41.595Z,101234.13
2022-10-31T23:27:13.200Z,101231.09
2022-10-31T23:29:44.567Z,101226.41
2022-10-31T23:32:26.284Z,101217.07
2022-10-31T23:34:57.806Z,101215.21
2022-10-31T23:37:28.863Z,101214.23
2022-10-31T23:39:57.707Z,101209.58
2022-10-31T23:42:27.335Z,101214.59
2022-10-31T23:44:56.681Z,101213.73
2022-10-31T23:47:26.073Z,101211.48
2022-10-31T23:49:54.596Z,101202.52
2022-10-31T23:52:23.568Z,101194.06
2022-10-31T23:54:52.437Z,101194.17
2022-10-31T23:57:20.996Z,101197.48
2022-10-31T23:59:49.250Z,101192.88
